Time;durP1;ratioP1;P1;durP2;ratioP2;P2;SDS_P1;SDS_P2;PMS_P1;PMS_P2;Temp;Humidity;BMP_temperature;BMP_pressure;BME280_temperature;BME280_humidity;BME280_pressure;Samples;Min_cycle;Max_cycle;Signal;HPM_P1;HPM_P2
2022/09/09 00:02:10;;;;;;;14.65;12.15;;;;;;;15.39;84.28;99890.10;2030335;87;27812;-61
2022/09/09 00:05:44;;;;;;;13.53;10.93;;;;;;;15.39;84.28;99890.10;2030385;86;29071;-62
2022/09/09 00:09:12;;;;;;;15.93;13.55;;;;;;;15.24;84.08;99891.62;2030352;87;31724;-62
2022/09/09 00:12:44;;;;;;;12.13;10.82;;;;;;;15.24;84.08;99891.62;2030099;87;33151;-61
2022/09/09 00:16:04;;;;;;;15.78;12.35;;;;;;;15.19;84.06;99903.27;2030420;86;29741;-61
2022/09/09 00:19:23;;;;;;;14.23;11.15;;;;;;;15.10;84.07;99898.55;2030410;86;27716;-62
2022/09/09 00:22:27;;;;;;;12.60;11.28;;;;;;;15.04;84.14;99898.06;2030643;87;29360;-62
2022/09/09 00:25:34;;;;;;;;;;;;;;;14.83;84.29;99868.64;2012746;87;31801;-62
2022/09/09 00:28:43;;;;;;;14.90;11.08;;;;;;;14.94;84.26;99897.50;2030035;87;33879;-62
2022/09/09 00:31:46;;;;;;;15.90;12.25;;;;;;;14.87;84.18;99903.34;2030223;87;29652;-61
2022/09/09 00:34:58;;;;;;;16.17;10.63;;;;;;;14.77;84.11;99906.83;2030407;87;28225;-63
2022/09/09 00:38:16;;;;;;;15.63;10.88;;;;;;;14.73;84.43;99902.16;2029316;86;27925;-61
2022/09/09 00:41:42;;;;;;;11.63;10.13;;;;;;;14.73;84.43;99902.16;2027344;87;30053;-62
2022/09/09 00:45:21;;;;;;;13.00;9.63;;;;;;;14.67;84.22;99900.75;2027522;87;33362;-62
2022/09/09 00:48:29;;;;;;;14.90;10.55;;;;;;;14.60;84.17;99900.81;2027791;87;30811;-62
2022/09/09 00:51:45;;;;;;;11.60;10.45;;;;;;;14.53;84.25;99905.79;2027835;87;27850;-65
2022/09/09 00:55:20;;;;;;;13.88;10.93;;;;;;;14.38;84.24;99884.00;1993351;89;30054;-61
2022/09/09 00:58:22;;;;;;;13.80;9.58;;;;;;;14.43;84.32;99909.63;2036412;87;31302;-61
2022/09/09 01:01:23;;;;;;;11.85;10.63;;;;;;;14.39;84.38;99913.55;2036748;87;33343;-62
2022/09/09 01:04:33;;;;;;;11.53;10.03;;;;;;;14.36;84.34;99908.38;2036189;87;30826;-61
2022/09/09 01:07:36;;;;;;;12.68;9.65;;;;;;;14.27;84.32;99915.28;2036501;87;28196;-60
2022/09/09 01:10:53;;;;;;;11.12;9.88;;;;;;;14.27;84.32;99915.28;2065110;86;29888;-60
2022/09/09 01:14:00;;;;;;;13.08;8.93;;;;;;;14.23;84.28;99911.08;2064989;86;32384;-61
2022/09/09 01:17:16;;;;;;;10.32;9.18;;;;;;;14.15;84.36;99908.55;2064505;86;33917;-60
2022/09/09 01:20:29;;;;;;;9.83;8.08;;;;;;;14.15;84.36;99908.55;2065009;86;29692;-61
2022/09/09 01:23:53;;;;;;;15.70;9.88;;;;;;;14.11;84.41;99914.15;2062517;86;28112;-61
2022/09/09 01:26:59;;;;;;;12.98;10.68;;;;;;;14.09;84.44;99916.09;2062957;85;29052;-60
2022/09/09 01:30:00;;;;;;;12.23;10.68;;;;;;;14.05;84.47;99917.30;2062911;85;31844;-66
2022/09/09 01:33:03;;;;;;;9.43;8.53;;;;;;;14.02;84.53;99920.20;2062843;86;33146;-61
2022/09/09 01:36:21;;;;;;;13.13;10.45;;;;;;;13.97;84.51;99921.88;2063733;85;29070;-60
2022/09/09 01:39:23;;;;;;;10.15;9.05;;;;;;;13.92;84.50;99929.41;2062173;85;27671;-61
2022/09/09 01:42:25;;;;;;;11.90;10.03;;;;;;;13.88;84.54;99929.23;2046797;86;28738;-61
2022/09/09 01:45:26;;;;;;;11.33;9.03;;;;;;;13.86;84.59;99930.31;2031876;87;32351;-63
2022/09/09 01:48:29;;;;;;;10.60;8.25;;;;;;;13.81;84.59;99930.14;2047314;87;34340;-61
2022/09/09 01:51:31;;;;;;;9.85;8.58;;;;;;;13.79;84.59;99936.12;2047796;86;29698;-61
2022/09/09 01:54:33;;;;;;;10.10;8.75;;;;;;;13.74;84.51;99934.72;2012856;86;27711;-61
2022/09/09 01:58:07;;;;;;;10.18;8.33;;;;;;;13.69;84.58;99932.34;2011447;88;29900;-61
2022/09/09 02:01:41;;;;;;;10.85;9.23;;;;;;;13.66;84.58;99940.13;2011744;87;31416;-66
2022/09/09 02:04:52;;;;;;;11.05;7.67;;;;;;;13.63;84.69;99938.14;2016945;87;33030;-66
2022/09/09 02:08:13;;;;;;;9.40;8.40;;;;;;;13.58;84.70;99938.92;2044644;87;30875;-61
2022/09/09 02:11:18;;;;;;;9.05;7.67;;;;;;;13.55;84.80;99935.13;2044230;86;27829;-61
2022/09/09 02:14:30;;;;;;;9.00;8.10;;;;;;;13.52;84.71;99937.52;1990916;89;29543;-62
2022/09/09 02:17:35;;;;;;;10.60;8.53;;;;;;;13.48;84.72;99944.10;2059417;86;31881;-64
2022/09/09 02:20:38;;;;;;;11.88;8.58;;;;;;;13.45;84.73;99955.06;2058907;86;34175;-62
2022/09/09 02:23:42;;;;;;;10.60;8.03;;;;;;;13.41;84.74;99946.81;2057459;86;29087;-65
2022/09/09 02:26:46;;;;;;;10.43;9.43;;;;;;;13.37;84.74;99948.33;2057582;85;27643;-62
2022/09/09 02:29:50;;;;;;;9.88;8.08;;;;;;;13.35;84.79;99954.78;2057553;86;28761;-61
2022/09/09 02:32:56;;;;;;;9.73;8.78;;;;;;;13.32;84.87;99949.61;2057372;86;31432;-61
2022/09/09 02:36:03;;;;;;;10.03;9.03;;;;;;;13.29;84.85;99948.45;2057376;86;33687;-61
2022/09/09 02:39:03;;;;;;;9.60;8.65;;;;;;;13.25;84.86;99952.31;2058606;85;29707;-62
2022/09/09 02:42:05;;;;;;;12.55;9.03;;;;;;;13.21;84.94;99955.23;2062845;86;27595;-61
2022/09/09 02:45:09;;;;;;;11.65;9.28;;;;;;;13.20;84.97;99953.97;2062794;86;28733;-61
2022/09/09 02:48:33;;;;;;;9.88;8.95;;;;;;;13.16;85.03;99958.70;2063002;86;31048;-62
2022/09/09 02:51:55;;;;;;;14.35;9.25;;;;;;;13.16;85.03;99958.70;2062957;85;33387;-61
2022/09/09 02:55:02;;;;;;;9.18;8.25;;;;;;;13.14;85.13;99963.81;2074298;85;29666;-61
2022/09/09 02:58:08;;;;;;;8.93;7.83;;;;;;;13.11;85.11;99962.66;2074176;85;27694;-62
2022/09/09 03:01:09;;;;;;;9.08;8.28;;;;;;;13.07;85.07;99966.89;2059020;85;29490;-60
2022/09/09 03:04:11;;;;;;;10.95;8.83;;;;;;;13.05;85.04;99969.31;2058521;85;32350;-61
2022/09/09 03:07:13;;;;;;;11.50;8.03;;;;;;;13.03;85.20;99965.36;2074122;85;32968;-61
2022/09/09 03:10:17;;;;;;;17.30;8.98;;;;;;;13.01;85.13;99964.59;2074005;85;43992;-61
2022/09/09 03:13:19;;;;;;;9.98;8.93;;;;;;;12.99;85.19;99966.51;2074378;85;27621;-62
2022/09/09 03:16:21;;;;;;;8.30;7.50;;;;;;;12.97;85.16;99964.89;2073842;85;29134;-61
2022/09/09 03:19:22;;;;;;;10.40;9.03;;;;;;;12.94;85.12;99974.03;2073854;85;32245;-62
2022/09/09 03:22:25;;;;;;;9.15;8.05;;;;;;;12.91;85.16;99976.42;2070298;85;34100;-61
2022/09/09 03:25:26;;;;;;;11.43;8.00;;;;;;;12.89;85.07;99983.75;2062848;85;29728;-61
2022/09/09 03:28:30;;;;;;;9.28;8.38;;;;;;;12.86;85.11;99980.38;2062936;86;27677;-60
2022/09/09 03:31:31;;;;;;;11.90;9.25;;;;;;;12.82;85.08;99983.75;2062322;86;29751;-61
2022/09/09 03:34:32;;;;;;;15.23;8.45;;;;;;;12.79;85.18;99979.91;2062813;86;31393;-63
2022/09/09 03:37:34;;;;;;;13.30;8.55;;;;;;;12.78;85.16;99981.36;2062847;86;33333;-61
2022/09/09 03:40:35;;;;;;;9.03;8.20;;;;;;;12.76;85.36;99985.47;2062546;86;29689;-62
2022/09/09 03:43:37;;;;;;;9.73;8.43;;;;;;;12.74;85.26;99985.59;2062769;86;27563;-61
2022/09/09 03:46:39;;;;;;;13.25;8.40;;;;;;;12.71;85.26;99988.96;2062707;86;29082;-61
2022/09/09 03:49:40;;;;;;;11.25;8.30;;;;;;;12.71;85.41;99990.30;2062815;86;31422;-61
2022/09/09 03:52:42;;;;;;;10.48;7.58;;;;;;;12.69;85.42;99997.10;2063788;85;33423;-63
2022/09/09 03:55:48;;;;;;;9.18;7.53;;;;;;;12.68;85.30;99993.18;2062875;86;30072;-60
2022/09/09 03:58:49;;;;;;;9.58;8.68;;;;;;;12.66;85.34;99995.09;2062941;86;27691;-61
2022/09/09 04:01:51;;;;;;;8.75;8.03;;;;;;;12.65;85.55;99996.05;2062952;86;29042;-64
2022/09/09 04:04:52;;;;;;;8.48;7.78;;;;;;;12.67;85.63;99999.52;2062654;86;33220;-62
2022/09/09 04:07:54;;;;;;;8.83;8.03;;;;;;;12.67;85.58;100000.86;2062951;86;33333;-63
2022/09/09 04:10:58;;;;;;;9.60;8.70;;;;;;;12.65;85.52;100005.46;2063334;86;30000;-62
2022/09/09 04:14:00;;;;;;;7.87;6.97;;;;;;;12.63;85.55;100002.00;2063522;86;28090;-62
2022/09/09 04:17:05;;;;;;;9.73;8.73;;;;;;;12.60;85.47;100004.41;2062965;86;29086;-62
2022/09/09 04:20:07;;;;;;;13.18;9.40;;;;;;;12.58;85.53;99999.61;2067429;85;32289;-60
2022/09/09 04:23:09;;;;;;;8.40;7.55;;;;;;;12.56;85.55;100005.56;2073866;85;33167;-61
2022/09/09 04:26:10;;;;;;;10.15;7.50;;;;;;;12.55;85.46;100002.48;2074408;85;29814;-61
2022/09/09 04:29:12;;;;;;;8.55;7.75;;;;;;;12.54;85.49;100004.33;2058971;85;27820;-61
2022/09/09 04:32:13;;;;;;;8.00;7.17;;;;;;;12.53;85.50;100005.28;2074398;85;29315;-60
2022/09/09 04:35:15;;;;;;;10.82;8.55;;;;;;;12.54;85.48;100014.20;2074251;85;31383;-61
2022/09/09 04:38:18;;;;;;;11.22;8.40;;;;;;;12.54;85.51;100022.25;2074339;85;33478;-60
2022/09/09 04:41:19;;;;;;;7.53;6.90;;;;;;;12.53;85.61;100013.81;2081643;85;30093;-60
2022/09/09 04:44:20;;;;;;;8.10;6.70;;;;;;;12.54;85.61;100015.08;2083070;85;27614;-61
2022/09/09 04:47:21;;;;;;;9.55;8.23;;;;;;;12.55;85.59;100014.12;2082207;85;29115;-61
2022/09/09 04:50:22;;;;;;;11.22;7.37;;;;;;;12.56;85.67;100011.81;2071281;85;31624;-60
2022/09/09 04:53:25;;;;;;;12.40;8.35;;;;;;;12.59;85.69;100013.44;2063826;86;33441;-61
2022/09/09 04:56:29;;;;;;;8.45;7.65;;;;;;;12.63;85.78;100012.75;2063782;86;30765;-61
2022/09/09 04:59:30;;;;;;;12.47;9.85;;;;;;;12.66;85.92;100013.41;2063816;86;27631;-61
2022/09/09 05:02:32;;;;;;;11.12;9.28;;;;;;;12.70;86.11;100015.45;2063883;86;29912;-61
2022/09/09 05:05:37;;;;;;;10.58;8.63;;;;;;;12.79;86.42;100020.23;2063501;86;31100;-61
2022/09/09 05:08:39;;;;;;;10.35;9.38;;;;;;;12.85;86.30;100021.20;2064051;86;33358;-60
2022/09/09 05:11:41;;;;;;;11.55;10.38;;;;;;;12.90;86.57;100022.23;2063742;86;29644;-60
2022/09/09 05:14:44;;;;;;;12.03;10.88;;;;;;;12.99;86.86;100024.82;2052192;86;27675;-61
2022/09/09 05:17:46;;;;;;;12.85;10.58;;;;;;;13.08;86.99;100025.55;2054845;86;28730;-60
2022/09/09 05:20:50;;;;;;;11.93;10.70;;;;;;;13.15;86.85;100028.73;2070171;85;32326;-60
2022/09/09 05:23:52;;;;;;;12.63;10.98;;;;;;;13.23;87.05;100026.40;2061609;85;32492;-61
2022/09/09 05:26:53;;;;;;;14.98;11.88;;;;;;;13.31;87.08;100038.88;2054734;86;30204;-61
2022/09/09 05:29:54;;;;;;;14.35;11.97;;;;;;;13.41;87.28;100035.61;2052096;86;28276;-61
2022/09/09 05:32:56;;;;;;;12.30;11.12;;;;;;;13.50;87.48;100041.25;2054903;86;29044;-61
2022/09/09 05:36:06;;;;;;;14.47;12.93;;;;;;;13.59;87.38;100038.89;2055060;86;31844;-60
2022/09/09 05:39:07;;;;;;;18.75;14.40;;;;;;;13.68;87.63;100040.49;2051467;86;32964;-61
2022/09/09 05:42:08;;;;;;;14.90;13.08;;;;;;;13.80;87.79;100041.50;2029603;87;30080;-61
2022/09/09 05:45:10;;;;;;;17.98;13.72;;;;;;;13.92;88.03;100043.86;2029768;87;27715;-62
2022/09/09 05:48:11;;;;;;;16.93;14.58;;;;;;;14.02;87.97;100045.91;2029952;87;29084;-61
2022/09/09 05:51:17;;;;;;;15.78;14.13;;;;;;;14.12;88.05;100049.22;2029946;87;31427;-61
2022/09/09 05:54:18;;;;;;;18.02;14.85;;;;;;;14.25;88.15;100048.37;2028592;87;33724;-62
2022/09/09 05:57:20;;;;;;;15.93;14.33;;;;;;;14.38;88.17;100044.34;2028242;87;29986;-62
2022/09/09 06:00:22;;;;;;;17.60;14.25;;;;;;;14.49;88.23;100038.20;2028538;87;27800;-61
2022/09/09 06:03:24;;;;;;;21.10;14.90;;;;;;;14.62;88.38;100028.27;2027605;87;29936;-64
2022/09/09 06:06:31;;;;;;;15.80;14.30;;;;;;;14.75;88.32;100028.30;2028135;87;31930;-62
2022/09/09 06:09:32;;;;;;;17.87;15.45;;;;;;;14.86;88.05;100036.47;2027754;87;34346;-62
2022/09/09 06:12:34;;;;;;;16.57;14.75;;;;;;;14.93;88.15;100031.99;2027804;87;30849;-64
2022/09/09 06:15:35;;;;;;;25.70;16.30;;;;;;;15.13;88.21;100040.86;2028258;87;27726;-64
2022/09/09 06:18:38;;;;;;;18.65;15.85;;;;;;;15.30;88.46;100045.00;2028024;87;28653;-62
2022/09/09 06:21:40;;;;;;;16.60;14.90;;;;;;;15.50;88.50;100030.52;2027773;87;32324;-63
2022/09/09 06:24:41;;;;;;;21.30;15.83;;;;;;;15.77;87.93;100010.49;2030754;87;33981;-63
2022/09/09 06:27:42;;;;;;;18.45;14.45;;;;;;;15.77;87.93;100010.49;2028088;87;30041;-62
2022/09/09 06:30:44;;;;;;;17.42;15.38;;;;;;;16.14;88.03;100024.39;2028324;87;27702;-61
2022/09/09 06:33:46;;;;;;;17.10;15.45;;;;;;;16.39;88.22;100023.33;2028197;87;29575;-62
2022/09/09 06:36:47;;;;;;;17.42;14.55;;;;;;;16.68;88.08;100020.18;2028182;87;32021;-62
2022/09/09 06:39:49;;;;;;;19.00;15.80;;;;;;;16.99;87.57;100025.34;2027753;87;33290;-61
2022/09/09 06:42:51;;;;;;;19.87;16.48;;;;;;;17.29;87.28;100029.23;2025546;87;30048;-61
2022/09/09 06:46:18;;;;;;;18.32;15.55;;;;;;;17.67;87.35;100033.82;2025428;87;27674;-61
2022/09/09 06:49:19;;;;;;;17.50;15.18;;;;;;;18.10;87.33;100034.77;2025563;87;28085;-61
2022/09/09 06:52:24;;;;;;;17.87;16.07;;;;;;;18.55;86.35;100037.66;2025560;87;33217;-61
2022/09/09 06:55:25;;;;;;;16.73;14.98;;;;;;;18.77;85.28;100040.73;2029518;87;33714;-61
2022/09/09 06:58:27;;;;;;;18.02;14.53;;;;;;;18.92;85.15;100037.13;2030081;87;29655;-61
2022/09/09 07:01:32;;;;;;;17.52;13.00;;;;;;;19.12;84.64;100038.59;2030203;87;27620;-61
2022/09/09 07:04:33;;;;;;;18.32;13.48;;;;;;;19.23;84.15;100034.91;2030156;87;28659;-61
2022/09/09 07:07:35;;;;;;;16.55;12.93;;;;;;;19.48;84.04;100036.25;2029830;87;32286;-61
2022/09/09 07:10:36;;;;;;;14.35;12.90;;;;;;;19.98;84.72;100038.53;2029933;87;32803;-61
2022/09/09 07:13:37;;;;;;;12.63;11.38;;;;;;;20.43;83.37;100036.52;2029850;87;30856;-59
2022/09/09 07:16:42;;;;;;;14.95;11.03;;;;;;;20.82;83.05;100042.89;2030050;87;27875;-61
2022/09/09 07:19:44;;;;;;;14.78;9.40;;;;;;;21.16;82.39;100041.79;2026988;87;29267;-62
2022/09/09 07:22:46;;;;;;;12.88;11.30;;;;;;;21.54;80.64;100043.94;2015795;87;32222;-60
2022/09/09 07:25:47;;;;;;;9.40;8.45;;;;;;;21.89;80.80;100042.76;2027489;87;33440;-61
2022/09/09 07:28:49;;;;;;;11.63;8.33;;;;;;;22.33;79.34;100046.02;2027758;87;30434;-60
2022/09/09 07:31:51;;;;;;;8.18;7.28;;;;;;;22.71;78.89;100053.48;2013600;88;27751;-60
2022/09/09 07:34:52;;;;;;;7.85;7.15;;;;;;;23.09;77.69;100048.18;2013705;88;30058;-61
2022/09/09 07:37:54;;;;;;;7.25;6.65;;;;;;;23.40;77.05;100040.31;2013593;88;31446;-61
2022/09/09 07:41:11;;;;;;;8.58;6.20;;;;;;;23.76;77.34;100038.69;2018969;87;33118;-62
2022/09/09 07:44:26;;;;;;;8.15;4.90;;;;;;;24.09;76.31;100034.63;1993426;88;30069;-62
2022/09/09 07:47:24;;;;;;;6.58;4.78;;;;;;;24.45;75.03;100033.92;2027136;87;28048;-62
2022/09/09 07:50:26;;;;;;;11.25;4.55;;;;;;;24.73;74.80;100044.00;2027718;87;29908;-62
2022/09/09 07:53:27;;;;;;;8.03;4.28;;;;;;;25.08;72.74;100052.77;2029106;86;31478;-60
2022/09/09 07:56:31;;;;;;;5.22;4.47;;;;;;;25.27;71.76;100044.64;2063548;86;32766;-62
2022/09/09 07:59:33;;;;;;;6.65;3.90;;;;;;;25.38;71.37;100051.63;2063056;86;30808;-62
2022/09/09 08:02:34;;;;;;;4.22;3.83;;;;;;;25.61;70.80;100061.79;1981678;86;28643;-62
2022/09/09 08:05:36;;;;;;;8.33;4.40;;;;;;;25.73;70.15;100053.47;1989468;89;29318;-62
2022/09/09 08:08:38;;;;;;;6.08;3.85;;;;;;;25.61;69.36;100054.44;1989673;89;30872;-62
2022/09/09 08:11:41;;;;;;;6.12;4.20;;;;;;;25.64;68.46;100061.44;2004141;88;34005;-63
2022/09/09 08:14:42;;;;;;;7.30;3.20;;;;;;;25.53;67.67;100053.09;2004625;88;30048;-64
2022/09/09 08:17:44;;;;;;;7.37;3.37;;;;;;;25.69;67.61;100047.17;1999377;88;27581;-62
2022/09/09 08:20:46;;;;;;;6.75;3.45;;;;;;;25.89;67.76;100055.80;1990730;89;28595;-62
2022/09/09 08:23:49;;;;;;;5.95;3.62;;;;;;;26.15;66.37;100049.09;1990753;89;31412;-61
2022/09/09 08:26:51;;;;;;;4.45;2.40;;;;;;;26.30;65.64;100049.15;1953587;91;36690;-62
2022/09/09 08:29:52;;;;;;;5.83;2.55;;;;;;;26.36;64.80;100049.25;1990774;89;29690;-62
2022/09/09 08:32:54;;;;;;;8.30;2.83;;;;;;;26.36;64.29;100048.38;2010536;85;28976;-62
2022/09/09 08:35:55;;;;;;;4.17;2.35;;;;;;;26.39;63.70;100042.52;2050031;86;28740;-63
2022/09/09 08:38:57;;;;;;;3.47;1.98;;;;;;;26.24;63.75;100043.85;2050025;86;32225;-72
2022/09/09 08:42:31;;;;;;;5.62;2.05;;;;;;;26.09;62.44;100036.94;2059167;86;33032;-70
2022/09/09 08:45:53;;;;;;;2.30;1.85;;;;;;;25.90;62.19;100041.01;2065045;86;30822;-68
2022/09/09 08:49:02;;;;;;;3.02;2.12;;;;;;;25.66;61.07;100036.55;2042559;86;27678;-72
2022/09/09 08:52:10;;;;;;;7.30;2.42;;;;;;;25.49;61.02;100040.77;2035099;87;28845;-70
2022/09/09 08:55:29;;;;;;;3.92;1.82;;;;;;;25.41;60.21;100041.64;2034499;87;31516;-71
2022/09/09 08:58:34;;;;;;;6.92;2.15;;;;;;;25.33;60.76;100045.81;2027545;87;33959;-72
2022/09/09 09:01:40;;;;;;;;;;;;;;;25.31;60.90;100049.25;2030028;87;30021;-70
2022/09/09 09:05:11;;;;;;;5.37;1.85;;;;;;;25.36;60.26;100054.19;1991390;89;27669;-74
2022/09/09 09:08:28;;;;;;;5.17;1.98;;;;;;;25.31;60.25;100054.23;2015825;88;28718;-69
2022/09/09 09:11:43;;;;;;;3.05;1.82;;;;;;;25.31;60.36;100053.36;2016075;88;31046;-72
2022/09/09 09:14:44;;;;;;;;;;;;;;;25.34;60.40;100056.59;2018125;88;33757;-70
2022/09/09 09:17:45;;;;;;;4.87;2.20;;;;;;;25.47;60.14;100052.46;2015846;88;27770;-70
2022/09/09 09:20:56;;;;;;;4.58;2.20;;;;;;;25.56;59.52;100060.97;2022225;87;27709;-71
2022/09/09 09:24:00;;;;;;;5.58;2.17;;;;;;;25.54;59.70;100060.29;2038687;87;28656;-63
2022/09/09 09:27:18;;;;;;;8.13;2.47;;;;;;;25.55;59.79;100057.05;2038186;87;31930;-64
2022/09/09 09:30:23;;;;;;;4.15;2.10;;;;;;;25.55;59.38;100051.03;2037562;87;32748;-66
2022/09/09 09:33:33;;;;;;;2.87;2.12;;;;;;;25.48;59.02;100054.17;2038709;87;29412;-68
2022/09/09 09:36:48;;;;;;;2.80;1.72;;;;;;;25.40;59.26;100055.55;2038915;87;27692;-72
2022/09/09 09:39:49;;;;;;;5.00;2.10;;;;;;;25.30;58.90;100064.86;2028588;87;29043;-67
2022/09/09 09:43:00;;;;;;;6.33;2.00;;;;;;;25.17;58.92;100053.08;2022564;87;32179;-75
2022/09/09 09:46:04;;;;;;;3.05;1.90;;;;;;;25.15;58.75;100058.42;2022539;87;33005;-74
2022/09/09 09:49:10;;;;;;;3.65;1.80;;;;;;;25.08;58.68;100054.13;2023096;87;29652;-72
2022/09/09 09:52:13;;;;;;;2.33;1.90;;;;;;;25.10;59.08;100052.60;2023046;87;28262;-72
2022/09/09 09:55:15;;;;;;;3.65;1.60;;;;;;;25.07;58.46;100053.79;2022540;87;29040;-73
2022/09/09 09:58:16;;;;;;;4.12;1.90;;;;;;;24.96;57.70;100050.07;2022719;87;32202;-78
2022/09/09 10:01:33;;;;;;;7.28;1.80;;;;;;;24.78;57.09;100056.63;2022540;88;33204;-70
2022/09/09 10:04:34;;;;;;;2.77;1.90;;;;;;;24.68;57.59;100054.58;2022597;88;29703;-74
2022/09/09 10:07:37;;;;;;;4.30;2.00;;;;;;;24.67;57.27;100053.71;2009728;88;27786;-73
2022/09/09 10:10:53;;;;;;;2.65;1.50;;;;;;;24.67;57.65;100054.23;2015559;87;29862;-69
2022/09/09 10:14:20;;;;;;;4.12;2.10;;;;;;;24.69;58.21;100057.66;1995738;89;31148;-69
2022/09/09 10:17:34;;;;;;;4.17;1.92;;;;;;;24.74;58.05;100055.27;1981520;87;33844;-70
2022/09/09 10:21:15;;;;;;;3.15;1.82;;;;;;;24.73;57.68;100053.05;1998374;87;30849;-70
2022/09/09 10:24:47;;;;;;;5.15;1.72;;;;;;;24.83;57.90;100054.73;1992566;87;27735;-67
2022/09/09 10:28:07;;;;;;;4.87;1.60;;;;;;;24.88;57.99;100053.20;2038291;86;29392;-70
2022/09/09 10:31:29;;;;;;;1.85;1.37;;;;;;;24.84;57.03;100055.94;2030616;86;32311;-68
2022/09/09 10:35:11;;;;;;;2.40;1.62;;;;;;;24.91;57.46;100059.33;1972698;89;34194;-68
2022/09/09 10:38:35;;;;;;;6.42;1.65;;;;;;;24.98;57.49;100060.34;1969144;89;30844;-71
2022/09/09 10:41:57;;;;;;;4.40;1.50;;;;;;;25.06;56.45;100049.88;1965816;89;28375;-63
2022/09/09 10:45:23;;;;;;;5.28;2.05;;;;;;;25.05;55.87;100046.78;1945183;89;29549;-71
2022/09/09 10:48:43;;;;;;;4.92;1.82;;;;;;;24.99;55.70;100040.97;1962038;89;31780;-72
2022/09/09 10:52:10;;;;;;;3.00;1.65;;;;;;;24.94;55.03;100048.02;1951672;89;34240;-68
2022/09/09 10:55:21;;;;;;;5.40;1.30;;;;;;;24.78;55.77;100045.67;1959535;89;30525;-72
2022/09/09 10:58:27;;;;;;;2.42;1.25;;;;;;;24.62;55.47;100044.31;1957071;89;27857;-74
2022/09/09 11:01:45;;;;;;;4.62;1.37;;;;;;;24.42;54.48;100041.95;1957328;89;28749;-71
2022/09/09 11:05:10;;;;;;;3.87;1.30;;;;;;;24.32;53.74;100039.91;1955903;89;32056;-71
2022/09/09 11:08:26;;;;;;;1.15;1.00;;;;;;;24.24;54.53;100044.88;1962330;89;33181;-77
2022/09/09 11:11:55;;;;;;;3.95;1.55;;;;;;;24.19;54.23;100045.91;2020524;86;30400;-75
2022/09/09 11:15:05;;;;;;;1.72;1.40;;;;;;;24.13;54.17;100039.23;2028517;86;27669;-75
2022/09/09 11:18:10;;;;;;;5.70;1.45;;;;;;;24.00;54.25;100043.84;1970002;89;28708;-76
2022/09/09 11:21:25;;;;;;;6.00;1.40;;;;;;;23.89;53.76;100039.56;1985733;89;32173;-75
2022/09/09 11:24:47;;;;;;;4.05;1.60;;;;;;;23.80;54.43;100043.30;1987887;89;32112;-76
2022/09/09 11:28:27;;;;;;;3.12;1.20;;;;;;;23.78;54.26;100042.60;1988308;89;29783;-71
2022/09/09 11:31:43;;;;;;;3.20;1.50;;;;;;;23.72;53.59;100044.14;1988458;89;27704;-72
2022/09/09 11:35:11;;;;;;;3.40;1.10;;;;;;;23.70;53.60;100041.23;1988334;89;29897;-70
2022/09/09 11:38:26;;;;;;;1.75;1.20;;;;;;;23.70;54.10;100037.98;1988371;89;31640;-73
2022/09/09 11:41:35;;;;;;;3.02;1.75;;;;;;;23.74;53.53;100041.25;2002983;88;33744;-72
2022/09/09 11:44:36;;;;;;;4.97;1.40;;;;;;;23.72;54.39;100039.20;2002854;88;30352;-71
2022/09/09 11:47:37;;;;;;;3.87;1.27;;;;;;;23.69;53.28;100042.27;2003075;88;27644;-72
2022/09/09 11:50:40;;;;;;;3.05;1.30;;;;;;;23.72;53.72;100040.03;2026086;87;30087;-72
2022/09/09 11:54:01;;;;;;;3.75;1.42;;;;;;;23.87;53.34;100033.89;2025351;87;31459;-70
2022/09/09 11:57:04;;;;;;;4.05;1.45;;;;;;;24.06;53.11;100036.86;2025546;87;33052;-72
2022/09/09 12:00:11;;;;;;;5.63;1.37;;;;;;;24.30;53.35;100038.73;2025800;87;29988;-72
2022/09/09 12:03:41;;;;;;;2.12;1.12;;;;;;;24.47;53.76;100036.81;2019964;87;27758;-72
2022/09/09 12:07:06;;;;;;;1.95;1.42;;;;;;;24.56;53.65;100033.55;2025560;87;29848;-71
2022/09/09 12:10:31;;;;;;;4.72;1.35;;;;;;;24.61;53.32;100038.49;2024603;87;31444;-71
2022/09/09 12:13:33;;;;;;;4.05;1.60;;;;;;;24.60;52.87;100032.17;2030157;87;33812;-71
2022/09/09 12:16:38;;;;;;;5.85;1.37;;;;;;;24.64;52.42;100023.95;2030246;87;30035;-70
2022/09/09 12:19:39;;;;;;;3.15;1.37;;;;;;;24.69;52.56;100026.16;2030120;87;27654;-72
2022/09/09 12:23:16;;;;;;;3.27;1.50;;;;;;;24.78;53.74;100027.03;2029976;87;29039;-72
2022/09/09 12:26:32;;;;;;;3.55;1.62;;;;;;;24.84;53.63;100028.55;2030069;87;32292;-70
2022/09/09 12:30:14;;;;;;;1.80;1.17;;;;;;;24.94;53.86;100024.23;2029977;87;33820;-72
2022/09/09 12:33:19;;;;;;;2.40;1.30;;;;;;;25.00;51.90;100016.64;1948571;91;29638;-71
2022/09/09 12:36:24;;;;;;;;;;;;;;;25.12;53.10;100014.38;1950991;91;27726;-72
2022/09/09 12:39:33;;;;;;;4.58;2.15;;;;;;;25.21;51.46;100015.72;1945873;91;29046;-73
2022/09/09 12:42:40;;;;;;;6.35;1.75;;;;;;;25.24;52.54;100018.08;1950999;90;31104;-70
2022/09/09 12:45:41;;;;;;;1.37;1.05;;;;;;;25.32;52.64;100023.53;1962941;90;34249;-71
2022/09/09 12:48:45;;;;;;;4.15;1.75;;;;;;;25.36;51.25;100025.39;1962983;90;30748;-73
2022/09/09 12:51:47;;;;;;;5.42;1.35;;;;;;;25.37;51.10;100018.38;1963256;90;27802;-72
2022/09/09 12:54:51;;;;;;;3.10;1.30;;;;;;;25.45;51.50;100032.59;1962678;90;28939;-73
2022/09/09 12:57:55;;;;;;;2.50;1.27;;;;;;;25.52;51.95;100041.78;1946925;91;32352;-72
2022/09/09 13:00:57;;;;;;;3.98;1.60;;;;;;;25.54;51.21;100034.77;1946774;91;33029;-72
2022/09/09 13:03:58;;;;;;;5.12;1.40;;;;;;;25.62;51.59;100029.20;1946970;91;30035;-71
2022/09/09 13:07:10;;;;;;;5.20;1.47;;;;;;;25.71;51.45;100021.78;1974344;89;27855;-69
2022/09/09 13:10:14;;;;;;;2.47;1.17;;;;;;;25.74;51.25;100020.05;2044245;86;30018;-71
2022/09/09 13:13:19;;;;;;;2.20;1.47;;;;;;;25.76;51.36;100023.47;2044189;86;32225;-72
2022/09/09 13:16:34;;;;;;;3.75;1.65;;;;;;;25.70;50.31;100022.31;2045091;86;32180;-72
2022/09/09 13:19:39;;;;;;;2.50;1.27;;;;;;;25.48;49.05;100019.36;2045138;87;36693;-67
2022/09/09 13:22:41;;;;;;;3.05;1.30;;;;;;;25.27;49.10;100018.59;2026092;87;27668;-71
2022/09/09 13:25:55;;;;;;;3.87;1.62;;;;;;;25.24;50.06;100010.72;2041278;87;28584;-70
2022/09/09 13:29:17;;;;;;;;;;;;;;;25.27;50.07;100009.00;2039700;87;31408;-70
2022/09/09 13:32:19;;;;;;;1.50;0.85;;;;;;;25.30;49.72;100002.29;2036922;87;34070;-69
2022/09/09 13:35:24;;;;;;;1.55;1.17;;;;;;;25.27;49.24;100002.14;2037193;87;30034;-71
2022/09/09 13:38:28;;;;;;;1.92;1.30;;;;;;;25.15;48.68;100003.59;2037054;87;27615;-71
2022/09/09 13:41:44;;;;;;;2.75;1.40;;;;;;;25.02;48.92;100002.78;2037322;87;28693;-71
2022/09/09 13:44:46;;;;;;;5.03;1.17;;;;;;;24.94;49.06;99994.58;2025629;87;32429;-68
2022/09/09 13:47:52;;;;;;;2.08;1.40;;;;;;;24.86;49.35;99993.60;2025484;87;33817;-70
2022/09/09 13:50:59;;;;;;;3.33;1.42;;;;;;;24.80;49.27;99989.34;2025607;87;29643;-70
2022/09/09 13:54:00;;;;;;;2.58;1.42;;;;;;;24.72;49.80;99985.59;2028768;87;27652;-71
2022/09/09 13:57:01;;;;;;;2.12;1.75;;;;;;;24.60;49.70;99987.48;2030070;87;29063;-71
2022/09/09 14:00:05;;;;;;;5.12;1.52;;;;;;;24.46;49.42;99985.81;2029834;87;31354;-68
2022/09/09 14:03:07;;;;;;;1.77;1.22;;;;;;;24.42;49.74;99979.84;2029120;87;33021;-66
2022/09/09 14:06:10;;;;;;;2.22;1.35;;;;;;;24.41;50.19;99982.23;2029262;87;30000;-69
2022/09/09 14:09:14;;;;;;;8.08;1.52;;;;;;;24.41;50.33;99984.97;2030460;87;27737;-70
2022/09/09 14:12:16;;;;;;;1.50;1.30;;;;;;;24.40;50.69;99979.16;2030393;87;28688;-70
2022/09/09 14:15:19;;;;;;;3.40;1.30;;;;;;;24.40;51.03;99987.89;2029916;87;31952;-68
2022/09/09 14:18:23;;;;;;;1.37;1.25;;;;;;;24.33;50.28;99980.03;2030120;87;32874;-64
2022/09/09 14:21:25;;;;;;;3.62;1.60;;;;;;;24.24;50.82;99976.45;2030237;87;30021;-70
2022/09/09 14:24:27;;;;;;;2.98;1.30;;;;;;;24.16;51.07;99981.42;2026462;87;27681;-69
2022/09/09 14:27:29;;;;;;;2.75;2.00;;;;;;;24.06;50.16;99980.23;2025588;87;29233;-70
2022/09/09 14:30:33;;;;;;;4.40;2.15;;;;;;;23.95;49.84;99981.40;2025612;87;32229;-69
2022/09/09 14:33:35;;;;;;;4.22;2.15;;;;;;;23.86;49.77;99980.20;2025486;87;34162;-67